sensor_id;sensor_type;location;lat;lon;timestamp;P1;durP1;ratioP1;P2;durP2;ratioP2
52268;SDS011;38224;50.950;4.100;2023-08-17T00:00:18;9.88;;;4.78;;
52268;SDS011;38224;50.950;4.100;2023-08-17T00:02:44;8.90;;;4.38;;
52268;SDS011;38224;50.950;4.100;2023-08-17T00:05:09;7.07;;;4.23;;
52268;SDS011;38224;50.950;4.100;2023-08-17T00:07:35;10.60;;;4.55;;
52268;SDS011;38224;50.950;4.100;2023-08-17T00:10:00;10.52;;;4.53;;
52268;SDS011;38224;50.950;4.100;2023-08-17T00:12:25;9.27;;;4.38;;
52268;SDS011;38224;50.950;4.100;2023-08-17T00:14:51;8.20;;;3.95;;
52268;SDS011;38224;50.950;4.100;2023-08-17T00:17:17;8.13;;;4.65;;
52268;SDS011;38224;50.950;4.100;2023-08-17T00:19:42;9.82;;;4.20;;
52268;SDS011;38224;50.950;4.100;2023-08-17T00:22:07;6.28;;;4.30;;
52268;SDS011;38224;50.950;4.100;2023-08-17T00:24:33;10.10;;;4.78;;
52268;SDS011;38224;50.950;4.100;2023-08-17T00:26:58;6.00;;;4.20;;
52268;SDS011;38224;50.950;4.100;2023-08-17T00:29:23;9.13;;;4.27;;
52268;SDS011;38224;50.950;4.100;2023-08-17T00:31:51;9.52;;;4.63;;
52268;SDS011;38224;50.950;4.100;2023-08-17T00:34:17;9.68;;;4.05;;
52268;SDS011;38224;50.950;4.100;2023-08-17T00:36:43;7.13;;;4.20;;
52268;SDS011;38224;50.950;4.100;2023-08-17T00:39:08;8.40;;;4.77;;
52268;SDS011;38224;50.950;4.100;2023-08-17T00:41:33;8.77;;;4.50;;
52268;SDS011;38224;50.950;4.100;2023-08-17T00:43:59;7.55;;;4.57;;
52268;SDS011;38224;50.950;4.100;2023-08-17T00:46:25;6.53;;;4.65;;
52268;SDS011;38224;50.950;4.100;2023-08-17T00:48:51;7.40;;;4.57;;
52268;SDS011;38224;50.950;4.100;2023-08-17T00:51:17;6.82;;;4.63;;
52268;SDS011;38224;50.950;4.100;2023-08-17T00:53:45;7.88;;;5.20;;
52268;SDS011;38224;50.950;4.100;2023-08-17T00:56:10;9.02;;;5.00;;
52268;SDS011;38224;50.950;4.100;2023-08-17T00:58:36;8.53;;;5.07;;
52268;SDS011;38224;50.950;4.100;2023-08-17T01:01:01;6.63;;;4.43;;
52268;SDS011;38224;50.950;4.100;2023-08-17T01:03:28;7.32;;;4.20;;
52268;SDS011;38224;50.950;4.100;2023-08-17T01:05:55;5.63;;;4.05;;
52268;SDS011;38224;50.950;4.100;2023-08-17T01:08:20;7.63;;;4.57;;
52268;SDS011;38224;50.950;4.100;2023-08-17T01:13:37;8.88;;;4.25;;
52268;SDS011;38224;50.950;4.100;2023-08-17T01:16:04;7.32;;;3.97;;
52268;SDS011;38224;50.950;4.100;2023-08-17T01:18:32;9.98;;;5.72;;
52268;SDS011;38224;50.950;4.100;2023-08-17T01:20:58;6.53;;;4.13;;
52268;SDS011;38224;50.950;4.100;2023-08-17T01:23:25;8.05;;;4.00;;
52268;SDS011;38224;50.950;4.100;2023-08-17T01:25:50;8.70;;;4.20;;
52268;SDS011;38224;50.950;4.100;2023-08-17T01:28:15;8.88;;;3.92;;
52268;SDS011;38224;50.950;4.100;2023-08-17T01:30:49;7.07;;;3.60;;
52268;SDS011;38224;50.950;4.100;2023-08-17T01:33:20;5.10;;;3.40;;
52268;SDS011;38224;50.950;4.100;2023-08-17T01:35:54;5.03;;;3.37;;
52268;SDS011;38224;50.950;4.100;2023-08-17T01:38:20;9.52;;;3.80;;
52268;SDS011;38224;50.950;4.100;2023-08-17T01:40:47;4.65;;;3.08;;
52268;SDS011;38224;50.950;4.100;2023-08-17T01:43:13;7.95;;;3.53;;
52268;SDS011;38224;50.950;4.100;2023-08-17T01:45:38;6.65;;;3.53;;
52268;SDS011;38224;50.950;4.100;2023-08-17T01:48:03;7.73;;;3.43;;
52268;SDS011;38224;50.950;4.100;2023-08-17T01:50:29;8.00;;;3.72;;
52268;SDS011;38224;50.950;4.100;2023-08-17T01:52:54;6.53;;;3.60;;
52268;SDS011;38224;50.950;4.100;2023-08-17T01:55:20;5.37;;;3.33;;
52268;SDS011;38224;50.950;4.100;2023-08-17T01:57:45;7.07;;;3.53;;
52268;SDS011;38224;50.950;4.100;2023-08-17T02:00:11;9.03;;;3.83;;
52268;SDS011;38224;50.950;4.100;2023-08-17T02:02:36;5.57;;;3.65;;
52268;SDS011;38224;50.950;4.100;2023-08-17T02:05:01;13.75;;;5.18;;
52268;SDS011;38224;50.950;4.100;2023-08-17T02:07:27;4.05;;;2.90;;
52268;SDS011;38224;50.950;4.100;2023-08-17T02:09:53;4.60;;;3.00;;
52268;SDS011;38224;50.950;4.100;2023-08-17T02:12:18;6.47;;;3.43;;
52268;SDS011;38224;50.950;4.100;2023-08-17T02:14:43;5.03;;;3.23;;
52268;SDS011;38224;50.950;4.100;2023-08-17T02:17:08;9.13;;;3.67;;
52268;SDS011;38224;50.950;4.100;2023-08-17T02:19:34;6.35;;;3.45;;
52268;SDS011;38224;50.950;4.100;2023-08-17T02:21:59;8.30;;;4.97;;
52268;SDS011;38224;50.950;4.100;2023-08-17T02:24:25;12.23;;;3.90;;
52268;SDS011;38224;50.950;4.100;2023-08-17T02:26:50;6.15;;;4.05;;
52268;SDS011;38224;50.950;4.100;2023-08-17T02:29:15;7.47;;;3.58;;
52268;SDS011;38224;50.950;4.100;2023-08-17T02:31:40;7.88;;;3.65;;
52268;SDS011;38224;50.950;4.100;2023-08-17T02:34:06;7.57;;;4.20;;
52268;SDS011;38224;50.950;4.100;2023-08-17T02:36:31;5.30;;;3.67;;
52268;SDS011;38224;50.950;4.100;2023-08-17T02:38:56;7.22;;;3.65;;
52268;SDS011;38224;50.950;4.100;2023-08-17T02:41:22;7.18;;;3.90;;
52268;SDS011;38224;50.950;4.100;2023-08-17T02:43:47;9.17;;;3.83;;
52268;SDS011;38224;50.950;4.100;2023-08-17T02:46:12;7.40;;;3.65;;
52268;SDS011;38224;50.950;4.100;2023-08-17T02:48:38;5.60;;;3.53;;
52268;SDS011;38224;50.950;4.100;2023-08-17T02:51:03;7.47;;;3.70;;
52268;SDS011;38224;50.950;4.100;2023-08-17T02:53:28;7.07;;;4.30;;
52268;SDS011;38224;50.950;4.100;2023-08-17T02:55:53;8.88;;;3.75;;
52268;SDS011;38224;50.950;4.100;2023-08-17T02:58:19;6.57;;;3.37;;
52268;SDS011;38224;50.950;4.100;2023-08-17T03:00:44;6.90;;;3.70;;
52268;SDS011;38224;50.950;4.100;2023-08-17T03:03:09;8.07;;;3.50;;
52268;SDS011;38224;50.950;4.100;2023-08-17T03:05:35;7.40;;;3.67;;
52268;SDS011;38224;50.950;4.100;2023-08-17T03:08:00;8.38;;;3.50;;
52268;SDS011;38224;50.950;4.100;2023-08-17T03:10:25;6.57;;;3.40;;
52268;SDS011;38224;50.950;4.100;2023-08-17T03:12:50;5.60;;;3.80;;
52268;SDS011;38224;50.950;4.100;2023-08-17T03:15:16;8.85;;;4.10;;
52268;SDS011;38224;50.950;4.100;2023-08-17T03:17:41;8.47;;;3.50;;
52268;SDS011;38224;50.950;4.100;2023-08-17T03:20:06;8.10;;;3.50;;
52268;SDS011;38224;50.950;4.100;2023-08-17T03:22:32;8.35;;;3.60;;
52268;SDS011;38224;50.950;4.100;2023-08-17T03:24:57;10.18;;;4.10;;
52268;SDS011;38224;50.950;4.100;2023-08-17T03:27:23;5.43;;;3.40;;
52268;SDS011;38224;50.950;4.100;2023-08-17T03:29:49;6.15;;;3.53;;
52268;SDS011;38224;50.950;4.100;2023-08-17T03:32:15;4.70;;;3.70;;
52268;SDS011;38224;50.950;4.100;2023-08-17T03:34:40;4.80;;;3.30;;
52268;SDS011;38224;50.950;4.100;2023-08-17T03:37:05;9.43;;;3.30;;
52268;SDS011;38224;50.950;4.100;2023-08-17T03:39:30;9.88;;;3.80;;
52268;SDS011;38224;50.950;4.100;2023-08-17T03:41:56;7.35;;;3.88;;
52268;SDS011;38224;50.950;4.100;2023-08-17T03:44:21;4.57;;;3.38;;
52268;SDS011;38224;50.950;4.100;2023-08-17T03:46:46;4.33;;;3.47;;
52268;SDS011;38224;50.950;4.100;2023-08-17T03:49:11;10.57;;;3.43;;
52268;SDS011;38224;50.950;4.100;2023-08-17T03:51:37;11.23;;;4.60;;
52268;SDS011;38224;50.950;4.100;2023-08-17T03:54:02;6.83;;;3.50;;
52268;SDS011;38224;50.950;4.100;2023-08-17T03:56:27;8.65;;;4.03;;
52268;SDS011;38224;50.950;4.100;2023-08-17T03:58:53;8.97;;;3.20;;
52268;SDS011;38224;50.950;4.100;2023-08-17T04:01:18;8.55;;;3.65;;
52268;SDS011;38224;50.950;4.100;2023-08-17T04:03:43;4.93;;;3.83;;
52268;SDS011;38224;50.950;4.100;2023-08-17T04:06:08;6.40;;;4.00;;
52268;SDS011;38224;50.950;4.100;2023-08-17T04:08:36;6.55;;;3.70;;
52268;SDS011;38224;50.950;4.100;2023-08-17T04:11:03;8.52;;;3.50;;
52268;SDS011;38224;50.950;4.100;2023-08-17T04:13:28;7.78;;;3.70;;
52268;SDS011;38224;50.950;4.100;2023-08-17T04:15:53;8.40;;;3.55;;
52268;SDS011;38224;50.950;4.100;2023-08-17T04:18:19;10.90;;;3.70;;
52268;SDS011;38224;50.950;4.100;2023-08-17T04:20:44;9.30;;;3.40;;
52268;SDS011;38224;50.950;4.100;2023-08-17T04:23:09;15.00;;;4.27;;
52268;SDS011;38224;50.950;4.100;2023-08-17T04:25:34;7.33;;;3.67;;
52268;SDS011;38224;50.950;4.100;2023-08-17T04:27:59;6.13;;;3.63;;
52268;SDS011;38224;50.950;4.100;2023-08-17T04:30:25;7.83;;;4.13;;
52268;SDS011;38224;50.950;4.100;2023-08-17T04:32:50;9.27;;;4.22;;
52268;SDS011;38224;50.950;4.100;2023-08-17T04:35:17;9.30;;;4.18;;
52268;SDS011;38224;50.950;4.100;2023-08-17T04:37:43;8.05;;;4.13;;
52268;SDS011;38224;50.950;4.100;2023-08-17T04:40:08;12.27;;;4.25;;
52268;SDS011;38224;50.950;4.100;2023-08-17T04:42:35;7.07;;;4.03;;
52268;SDS011;38224;50.950;4.100;2023-08-17T04:45:00;8.55;;;4.43;;
52268;SDS011;38224;50.950;4.100;2023-08-17T04:47:25;11.03;;;4.53;;
52268;SDS011;38224;50.950;4.100;2023-08-17T04:49:50;7.53;;;4.60;;
52268;SDS011;38224;50.950;4.100;2023-08-17T04:52:16;9.55;;;3.60;;
52268;SDS011;38224;50.950;4.100;2023-08-17T04:54:41;6.35;;;3.92;;
52268;SDS011;38224;50.950;4.100;2023-08-17T04:57:06;10.77;;;4.10;;
52268;SDS011;38224;50.950;4.100;2023-08-17T04:59:31;5.77;;;3.27;;
52268;SDS011;38224;50.950;4.100;2023-08-17T05:01:57;7.33;;;4.50;;
52268;SDS011;38224;50.950;4.100;2023-08-17T05:04:22;6.70;;;3.80;;
52268;SDS011;38224;50.950;4.100;2023-08-17T05:06:47;5.15;;;3.38;;
52268;SDS011;38224;50.950;4.100;2023-08-17T05:09:12;9.40;;;4.30;;
52268;SDS011;38224;50.950;4.100;2023-08-17T05:11:38;11.65;;;3.97;;
52268;SDS011;38224;50.950;4.100;2023-08-17T05:14:03;12.40;;;4.10;;
52268;SDS011;38224;50.950;4.100;2023-08-17T05:16:28;7.00;;;3.13;;
52268;SDS011;38224;50.950;4.100;2023-08-17T05:18:53;8.17;;;4.30;;
52268;SDS011;38224;50.950;4.100;2023-08-17T05:21:19;13.80;;;5.47;;
52268;SDS011;38224;50.950;4.100;2023-08-17T05:23:44;7.17;;;3.83;;
52268;SDS011;38224;50.950;4.100;2023-08-17T05:26:09;10.40;;;3.40;;
52268;SDS011;38224;50.950;4.100;2023-08-17T05:28:34;9.67;;;3.70;;
52268;SDS011;38224;50.950;4.100;2023-08-17T05:31:04;8.87;;;3.80;;
52268;SDS011;38224;50.950;4.100;2023-08-17T05:33:29;8.38;;;3.22;;
52268;SDS011;38224;50.950;4.100;2023-08-17T05:35:55;8.07;;;3.27;;
52268;SDS011;38224;50.950;4.100;2023-08-17T05:38:20;7.78;;;3.28;;
52268;SDS011;38224;50.950;4.100;2023-08-17T05:40:45;5.30;;;3.10;;
52268;SDS011;38224;50.950;4.100;2023-08-17T05:43:10;8.00;;;3.53;;
52268;SDS011;38224;50.950;4.100;2023-08-17T05:45:36;7.27;;;3.03;;
52268;SDS011;38224;50.950;4.100;2023-08-17T05:48:02;7.25;;;3.45;;
52268;SDS011;38224;50.950;4.100;2023-08-17T05:50:27;4.97;;;2.95;;
52268;SDS011;38224;50.950;4.100;2023-08-17T05:52:53;6.63;;;3.80;;
52268;SDS011;38224;50.950;4.100;2023-08-17T05:55:19;7.45;;;3.13;;
52268;SDS011;38224;50.950;4.100;2023-08-17T05:57:44;9.60;;;4.00;;
52268;SDS011;38224;50.950;4.100;2023-08-17T06:00:09;10.20;;;3.57;;
52268;SDS011;38224;50.950;4.100;2023-08-17T06:02:38;8.35;;;2.92;;
52268;SDS011;38224;50.950;4.100;2023-08-17T06:05:04;4.15;;;2.97;;
52268;SDS011;38224;50.950;4.100;2023-08-17T06:07:29;10.73;;;3.30;;
52268;SDS011;38224;50.950;4.100;2023-08-17T06:09:54;8.10;;;2.87;;
52268;SDS011;38224;50.950;4.100;2023-08-17T06:12:19;6.50;;;3.30;;
52268;SDS011;38224;50.950;4.100;2023-08-17T06:14:45;6.85;;;3.60;;
52268;SDS011;38224;50.950;4.100;2023-08-17T06:17:10;8.67;;;3.57;;
52268;SDS011;38224;50.950;4.100;2023-08-17T06:19:35;9.60;;;3.15;;
52268;SDS011;38224;50.950;4.100;2023-08-17T06:22:01;6.03;;;2.70;;
52268;SDS011;38224;50.950;4.100;2023-08-17T06:24:26;9.47;;;3.33;;
52268;SDS011;38224;50.950;4.100;2023-08-17T06:26:51;6.37;;;2.70;;
52268;SDS011;38224;50.950;4.100;2023-08-17T06:29:16;10.57;;;3.57;;
52268;SDS011;38224;50.950;4.100;2023-08-17T06:31:42;7.87;;;2.30;;
52268;SDS011;38224;50.950;4.100;2023-08-17T06:34:07;6.17;;;3.47;;
52268;SDS011;38224;50.950;4.100;2023-08-17T06:36:32;5.23;;;2.43;;
52268;SDS011;38224;50.950;4.100;2023-08-17T06:38:57;6.75;;;2.88;;
52268;SDS011;38224;50.950;4.100;2023-08-17T06:41:23;12.52;;;2.53;;
52268;SDS011;38224;50.950;4.100;2023-08-17T06:43:49;9.68;;;2.83;;
52268;SDS011;38224;50.950;4.100;2023-08-17T06:46:15;4.20;;;2.35;;
52268;SDS011;38224;50.950;4.100;2023-08-17T06:48:40;5.28;;;2.38;;
52268;SDS011;38224;50.950;4.100;2023-08-17T06:51:06;8.43;;;3.30;;
52268;SDS011;38224;50.950;4.100;2023-08-17T06:53:31;6.85;;;2.90;;
52268;SDS011;38224;50.950;4.100;2023-08-17T06:55:56;9.10;;;2.53;;
52268;SDS011;38224;50.950;4.100;2023-08-17T06:58:22;4.50;;;2.60;;
52268;SDS011;38224;50.950;4.100;2023-08-17T07:00:47;9.63;;;2.90;;
52268;SDS011;38224;50.950;4.100;2023-08-17T07:03:12;8.40;;;2.97;;
52268;SDS011;38224;50.950;4.100;2023-08-17T07:05:37;7.47;;;3.07;;
52268;SDS011;38224;50.950;4.100;2023-08-17T07:08:03;10.57;;;4.00;;
52268;SDS011;38224;50.950;4.100;2023-08-17T07:10:28;6.53;;;3.35;;
52268;SDS011;38224;50.950;4.100;2023-08-17T07:12:53;14.75;;;3.38;;
52268;SDS011;38224;50.950;4.100;2023-08-17T07:15:19;5.03;;;2.83;;
52268;SDS011;38224;50.950;4.100;2023-08-17T07:17:44;7.13;;;3.40;;
52268;SDS011;38224;50.950;4.100;2023-08-17T07:20:09;7.73;;;3.00;;
52268;SDS011;38224;50.950;4.100;2023-08-17T07:22:36;14.32;;;3.95;;
52268;SDS011;38224;50.950;4.100;2023-08-17T07:25:01;5.65;;;3.13;;
52268;SDS011;38224;50.950;4.100;2023-08-17T07:27:27;10.98;;;3.00;;
52268;SDS011;38224;50.950;4.100;2023-08-17T07:29:52;7.67;;;3.33;;
52268;SDS011;38224;50.950;4.100;2023-08-17T07:32:18;8.57;;;3.73;;
52268;SDS011;38224;50.950;4.100;2023-08-17T07:34:43;10.80;;;3.50;;
52268;SDS011;38224;50.950;4.100;2023-08-17T07:37:08;6.87;;;2.77;;
52268;SDS011;38224;50.950;4.100;2023-08-17T07:39:33;8.43;;;4.00;;
52268;SDS011;38224;50.950;4.100;2023-08-17T07:41:59;12.23;;;4.47;;
52268;SDS011;38224;50.950;4.100;2023-08-17T07:44:24;9.27;;;4.27;;
52268;SDS011;38224;50.950;4.100;2023-08-17T07:46:49;10.83;;;4.03;;
52268;SDS011;38224;50.950;4.100;2023-08-17T07:49:14;9.57;;;3.95;;
52268;SDS011;38224;50.950;4.100;2023-08-17T07:51:40;15.47;;;5.10;;
52268;SDS011;38224;50.950;4.100;2023-08-17T07:54:05;13.18;;;4.28;;
52268;SDS011;38224;50.950;4.100;2023-08-17T07:56:30;8.05;;;4.03;;
52268;SDS011;38224;50.950;4.100;2023-08-17T07:58:56;10.17;;;5.30;;
52268;SDS011;38224;50.950;4.100;2023-08-17T08:01:22;10.60;;;3.88;;
52268;SDS011;38224;50.950;4.100;2023-08-17T08:03:47;10.17;;;4.57;;
52268;SDS011;38224;50.950;4.100;2023-08-17T08:06:12;15.27;;;4.30;;
52268;SDS011;38224;50.950;4.100;2023-08-17T08:08:39;11.97;;;5.33;;
52268;SDS011;38224;50.950;4.100;2023-08-17T08:11:05;7.18;;;4.30;;
52268;SDS011;38224;50.950;4.100;2023-08-17T08:13:30;11.68;;;5.00;;
52268;SDS011;38224;50.950;4.100;2023-08-17T08:15:57;8.27;;;4.40;;
52268;SDS011;38224;50.950;4.100;2023-08-17T08:18:23;15.63;;;5.10;;
52268;SDS011;38224;50.950;4.100;2023-08-17T08:20:48;9.93;;;4.20;;
52268;SDS011;38224;50.950;4.100;2023-08-17T08:23:13;7.77;;;4.37;;
52268;SDS011;38224;50.950;4.100;2023-08-17T08:25:39;8.40;;;3.75;;
52268;SDS011;38224;50.950;4.100;2023-08-17T08:28:04;11.20;;;5.60;;
52268;SDS011;38224;50.950;4.100;2023-08-17T08:30:29;10.07;;;4.72;;
52268;SDS011;38224;50.950;4.100;2023-08-17T08:32:55;10.05;;;3.75;;
52268;SDS011;38224;50.950;4.100;2023-08-17T08:35:22;9.60;;;4.00;;
52268;SDS011;38224;50.950;4.100;2023-08-17T08:37:49;7.63;;;4.03;;
52268;SDS011;38224;50.950;4.100;2023-08-17T08:40:14;11.63;;;4.18;;
52268;SDS011;38224;50.950;4.100;2023-08-17T08:42:41;9.32;;;4.63;;
52268;SDS011;38224;50.950;4.100;2023-08-17T08:45:07;9.32;;;5.28;;
52268;SDS011;38224;50.950;4.100;2023-08-17T08:47:32;7.25;;;3.75;;
52268;SDS011;38224;50.950;4.100;2023-08-17T08:49:59;5.68;;;4.00;;
52268;SDS011;38224;50.950;4.100;2023-08-17T08:52:32;9.18;;;4.32;;
52268;SDS011;38224;50.950;4.100;2023-08-17T08:54:58;9.00;;;3.88;;
52268;SDS011;38224;50.950;4.100;2023-08-17T08:57:28;8.52;;;4.22;;
52268;SDS011;38224;50.950;4.100;2023-08-17T08:59:53;10.07;;;4.68;;
52268;SDS011;38224;50.950;4.100;2023-08-17T09:02:19;9.55;;;4.95;;
52268;SDS011;38224;50.950;4.100;2023-08-17T09:04:44;11.55;;;4.68;;
52268;SDS011;38224;50.950;4.100;2023-08-17T09:07:13;10.10;;;4.35;;
52268;SDS011;38224;50.950;4.100;2023-08-17T09:09:39;7.70;;;4.25;;
52268;SDS011;38224;50.950;4.100;2023-08-17T09:12:06;8.20;;;4.53;;
52268;SDS011;38224;50.950;4.100;2023-08-17T09:14:32;11.07;;;3.97;;
52268;SDS011;38224;50.950;4.100;2023-08-17T09:16:57;9.57;;;4.10;;
52268;SDS011;38224;50.950;4.100;2023-08-17T09:19:23;8.40;;;4.53;;
52268;SDS011;38224;50.950;4.100;2023-08-17T09:21:49;8.48;;;4.43;;
52268;SDS011;38224;50.950;4.100;2023-08-17T09:24:14;7.50;;;4.50;;
52268;SDS011;38224;50.950;4.100;2023-08-17T09:26:40;5.90;;;4.10;;
52268;SDS011;38224;50.950;4.100;2023-08-17T09:29:16;11.20;;;4.07;;
52268;SDS011;38224;50.950;4.100;2023-08-17T09:31:41;12.85;;;5.05;;
52268;SDS011;38224;50.950;4.100;2023-08-17T09:34:06;9.27;;;4.80;;
52268;SDS011;38224;50.950;4.100;2023-08-17T09:36:31;11.63;;;4.90;;
52268;SDS011;38224;50.950;4.100;2023-08-17T09:38:59;7.93;;;4.75;;
52268;SDS011;38224;50.950;4.100;2023-08-17T09:41:26;6.53;;;4.13;;
52268;SDS011;38224;50.950;4.100;2023-08-17T09:43:51;12.63;;;4.60;;
52268;SDS011;38224;50.950;4.100;2023-08-17T09:46:19;8.45;;;4.63;;
52268;SDS011;38224;50.950;4.100;2023-08-17T09:48:44;15.20;;;5.47;;
52268;SDS011;38224;50.950;4.100;2023-08-17T09:51:10;9.25;;;4.95;;
52268;SDS011;38224;50.950;4.100;2023-08-17T09:53:36;7.65;;;4.03;;
52268;SDS011;38224;50.950;4.100;2023-08-17T09:56:07;8.80;;;4.05;;
52268;SDS011;38224;50.950;4.100;2023-08-17T09:58:35;6.50;;;3.80;;
52268;SDS011;38224;50.950;4.100;2023-08-17T10:01:02;7.30;;;4.15;;
52268;SDS011;38224;50.950;4.100;2023-08-17T10:03:28;9.45;;;4.15;;
52268;SDS011;38224;50.950;4.100;2023-08-17T10:05:56;7.70;;;4.47;;
52268;SDS011;38224;50.950;4.100;2023-08-17T10:08:24;9.75;;;4.57;;
52268;SDS011;38224;50.950;4.100;2023-08-17T10:10:50;7.82;;;4.10;;
52268;SDS011;38224;50.950;4.100;2023-08-17T10:15:50;10.57;;;5.10;;
52268;SDS011;38224;50.950;4.100;2023-08-17T10:20:45;8.80;;;4.68;;
52268;SDS011;38224;50.950;4.100;2023-08-17T10:23:14;10.45;;;4.47;;
52268;SDS011;38224;50.950;4.100;2023-08-17T10:25:40;8.60;;;5.47;;
52268;SDS011;38224;50.950;4.100;2023-08-17T10:28:06;9.68;;;5.00;;
52268;SDS011;38224;50.950;4.100;2023-08-17T10:30:32;10.73;;;4.80;;
52268;SDS011;38224;50.950;4.100;2023-08-17T10:32:58;7.93;;;5.00;;
52268;SDS011;38224;50.950;4.100;2023-08-17T10:35:24;9.15;;;5.18;;
52268;SDS011;38224;50.950;4.100;2023-08-17T10:37:50;10.00;;;5.05;;
52268;SDS011;38224;50.950;4.100;2023-08-17T10:40:16;9.18;;;5.95;;
52268;SDS011;38224;50.950;4.100;2023-08-17T10:42:41;7.63;;;5.23;;
52268;SDS011;38224;50.950;4.100;2023-08-17T10:47:47;12.27;;;5.55;;
52268;SDS011;38224;50.950;4.100;2023-08-17T10:50:22;16.75;;;5.50;;
52268;SDS011;38224;50.950;4.100;2023-08-17T10:52:48;9.38;;;5.13;;
52268;SDS011;38224;50.950;4.100;2023-08-17T10:55:13;11.38;;;5.25;;
52268;SDS011;38224;50.950;4.100;2023-08-17T10:57:39;11.97;;;5.63;;
52268;SDS011;38224;50.950;4.100;2023-08-17T11:00:05;6.60;;;5.32;;
52268;SDS011;38224;50.950;4.100;2023-08-17T11:02:33;12.80;;;5.82;;
52268;SDS011;38224;50.950;4.100;2023-08-17T11:04:58;7.78;;;5.15;;
52268;SDS011;38224;50.950;4.100;2023-08-17T11:07:23;9.53;;;5.40;;
52268;SDS011;38224;50.950;4.100;2023-08-17T11:09:52;8.75;;;5.43;;
52268;SDS011;38224;50.950;4.100;2023-08-17T11:12:24;12.05;;;5.57;;
52268;SDS011;38224;50.950;4.100;2023-08-17T11:14:49;10.88;;;6.18;;
52268;SDS011;38224;50.950;4.100;2023-08-17T11:17:15;10.53;;;5.90;;
52268;SDS011;38224;50.950;4.100;2023-08-17T11:19:40;11.10;;;6.57;;
52268;SDS011;38224;50.950;4.100;2023-08-17T11:22:05;11.35;;;7.07;;
52268;SDS011;38224;50.950;4.100;2023-08-17T11:24:31;11.50;;;5.63;;
52268;SDS011;38224;50.950;4.100;2023-08-17T11:26:56;9.33;;;6.03;;
52268;SDS011;38224;50.950;4.100;2023-08-17T11:29:21;9.60;;;5.70;;
52268;SDS011;38224;50.950;4.100;2023-08-17T11:31:49;8.23;;;5.80;;
52268;SDS011;38224;50.950;4.100;2023-08-17T11:34:15;8.82;;;6.25;;
52268;SDS011;38224;50.950;4.100;2023-08-17T11:36:40;11.57;;;6.20;;
52268;SDS011;38224;50.950;4.100;2023-08-17T11:39:05;9.73;;;6.43;;
52268;SDS011;38224;50.950;4.100;2023-08-17T11:41:32;12.00;;;7.07;;
52268;SDS011;38224;50.950;4.100;2023-08-17T11:43:57;8.48;;;6.60;;
52268;SDS011;38224;50.950;4.100;2023-08-17T11:46:23;11.48;;;6.95;;
52268;SDS011;38224;50.950;4.100;2023-08-17T11:48:50;9.30;;;7.50;;
52268;SDS011;38224;50.950;4.100;2023-08-17T11:51:27;10.20;;;7.07;;
52268;SDS011;38224;50.950;4.100;2023-08-17T11:53:53;14.02;;;8.40;;
52268;SDS011;38224;50.950;4.100;2023-08-17T11:56:18;9.53;;;6.60;;
52268;SDS011;38224;50.950;4.100;2023-08-17T11:58:44;12.93;;;7.00;;
52268;SDS011;38224;50.950;4.100;2023-08-17T12:01:10;11.02;;;7.18;;
52268;SDS011;38224;50.950;4.100;2023-08-17T12:03:36;10.18;;;7.30;;
52268;SDS011;38224;50.950;4.100;2023-08-17T12:06:01;10.82;;;6.47;;
52268;SDS011;38224;50.950;4.100;2023-08-17T12:08:27;11.52;;;7.18;;
52268;SDS011;38224;50.950;4.100;2023-08-17T12:10:52;10.05;;;7.32;;
52268;SDS011;38224;50.950;4.100;2023-08-17T12:13:17;10.80;;;6.97;;
52268;SDS011;38224;50.950;4.100;2023-08-17T12:15:42;12.03;;;6.60;;
52268;SDS011;38224;50.950;4.100;2023-08-17T12:18:08;7.60;;;5.75;;
52268;SDS011;38224;50.950;4.100;2023-08-17T12:20:33;10.87;;;6.33;;
52268;SDS011;38224;50.950;4.100;2023-08-17T12:23:02;8.48;;;6.85;;
52268;SDS011;38224;50.950;4.100;2023-08-17T12:25:27;11.68;;;7.43;;
52268;SDS011;38224;50.950;4.100;2023-08-17T12:27:52;11.18;;;6.93;;
52268;SDS011;38224;50.950;4.100;2023-08-17T12:30:27;14.37;;;7.07;;
52268;SDS011;38224;50.950;4.100;2023-08-17T12:32:53;11.70;;;7.38;;
52268;SDS011;38224;50.950;4.100;2023-08-17T12:35:18;12.57;;;8.02;;
52268;SDS011;38224;50.950;4.100;2023-08-17T12:37:46;11.27;;;8.73;;
52268;SDS011;38224;50.950;4.100;2023-08-17T12:40:11;12.67;;;9.40;;
52268;SDS011;38224;50.950;4.100;2023-08-17T12:42:36;13.77;;;8.57;;
52268;SDS011;38224;50.950;4.100;2023-08-17T12:45:02;11.13;;;9.00;;
52268;SDS011;38224;50.950;4.100;2023-08-17T12:47:27;13.93;;;9.07;;
52268;SDS011;38224;50.950;4.100;2023-08-17T12:49:52;18.08;;;8.55;;
52268;SDS011;38224;50.950;4.100;2023-08-17T12:52:18;12.32;;;8.65;;
52268;SDS011;38224;50.950;4.100;2023-08-17T12:54:43;13.50;;;8.90;;
52268;SDS011;38224;50.950;4.100;2023-08-17T12:57:09;14.43;;;10.33;;
52268;SDS011;38224;50.950;4.100;2023-08-17T12:59:34;12.43;;;9.37;;
52268;SDS011;38224;50.950;4.100;2023-08-17T13:01:59;14.07;;;9.03;;
52268;SDS011;38224;50.950;4.100;2023-08-17T13:04:24;13.70;;;9.50;;
52268;SDS011;38224;50.950;4.100;2023-08-17T13:06:50;11.60;;;8.93;;
52268;SDS011;38224;50.950;4.100;2023-08-17T13:09:16;10.10;;;8.95;;
52268;SDS011;38224;50.950;4.100;2023-08-17T13:11:43;12.50;;;8.70;;
52268;SDS011;38224;50.950;4.100;2023-08-17T13:14:08;13.77;;;8.60;;
52268;SDS011;38224;50.950;4.100;2023-08-17T13:16:33;15.70;;;7.97;;
52268;SDS011;38224;50.950;4.100;2023-08-17T13:18:58;16.73;;;9.30;;
52268;SDS011;38224;50.950;4.100;2023-08-17T13:21:24;14.70;;;8.60;;
52268;SDS011;38224;50.950;4.100;2023-08-17T13:23:49;12.53;;;8.60;;
52268;SDS011;38224;50.950;4.100;2023-08-17T13:26:14;13.43;;;8.47;;
52268;SDS011;38224;50.950;4.100;2023-08-17T13:28:39;16.03;;;9.37;;
52268;SDS011;38224;50.950;4.100;2023-08-17T13:31:05;12.57;;;8.37;;
52268;SDS011;38224;50.950;4.100;2023-08-17T13:33:30;12.60;;;8.10;;
52268;SDS011;38224;50.950;4.100;2023-08-17T13:35:55;17.27;;;8.80;;
52268;SDS011;38224;50.950;4.100;2023-08-17T13:38:20;11.77;;;8.47;;
52268;SDS011;38224;50.950;4.100;2023-08-17T13:40:46;14.70;;;8.83;;
52268;SDS011;38224;50.950;4.100;2023-08-17T13:43:11;11.55;;;8.82;;
52268;SDS011;38224;50.950;4.100;2023-08-17T13:45:39;12.57;;;8.60;;
52268;SDS011;38224;50.950;4.100;2023-08-17T13:48:05;17.13;;;9.18;;
52268;SDS011;38224;50.950;4.100;2023-08-17T13:50:31;13.27;;;8.15;;
52268;SDS011;38224;50.950;4.100;2023-08-17T13:52:56;14.83;;;8.47;;
52268;SDS011;38224;50.950;4.100;2023-08-17T13:55:25;13.38;;;8.02;;
52268;SDS011;38224;50.950;4.100;2023-08-17T13:57:50;16.67;;;7.83;;
52268;SDS011;38224;50.950;4.100;2023-08-17T14:00:17;11.55;;;8.52;;
52268;SDS011;38224;50.950;4.100;2023-08-17T14:02:43;13.13;;;8.07;;
52268;SDS011;38224;50.950;4.100;2023-08-17T14:05:08;14.93;;;9.07;;
52268;SDS011;38224;50.950;4.100;2023-08-17T14:07:33;11.33;;;8.07;;
52268;SDS011;38224;50.950;4.100;2023-08-17T14:09:58;19.70;;;8.63;;
52268;SDS011;38224;50.950;4.100;2023-08-17T14:12:24;15.13;;;8.93;;
52268;SDS011;38224;50.950;4.100;2023-08-17T14:14:49;15.40;;;8.33;;
52268;SDS011;38224;50.950;4.100;2023-08-17T14:17:14;16.13;;;8.80;;
52268;SDS011;38224;50.950;4.100;2023-08-17T14:19:39;13.48;;;8.63;;
52268;SDS011;38224;50.950;4.100;2023-08-17T14:22:05;16.33;;;9.37;;
52268;SDS011;38224;50.950;4.100;2023-08-17T14:24:30;16.35;;;9.60;;
52268;SDS011;38224;50.950;4.100;2023-08-17T14:26:55;12.27;;;10.10;;
52268;SDS011;38224;50.950;4.100;2023-08-17T14:29:23;15.85;;;10.43;;
52268;SDS011;38224;50.950;4.100;2023-08-17T14:31:48;14.55;;;9.45;;
52268;SDS011;38224;50.950;4.100;2023-08-17T14:34:13;16.73;;;11.13;;
52268;SDS011;38224;50.950;4.100;2023-08-17T14:36:40;15.95;;;9.68;;
52268;SDS011;38224;50.950;4.100;2023-08-17T14:39:05;15.20;;;9.13;;
52268;SDS011;38224;50.950;4.100;2023-08-17T14:41:30;12.80;;;8.95;;
52268;SDS011;38224;50.950;4.100;2023-08-17T14:43:58;15.65;;;9.45;;